sensor_id;sensor_type;location;lat;lon;timestamp;pressure;altitude;pressure_sealevel;temperature;humidity
8697;BME280;4385;48.848;8.924;2023-03-03T00:00:20;97558.50;;;15.86;100.00
8697;BME280;4385;48.848;8.924;2023-03-03T00:02:46;97567.88;;;15.82;100.00
8697;BME280;4385;48.848;8.924;2023-03-03T00:05:11;97573.78;;;15.80;100.00
8697;BME280;4385;48.848;8.924;2023-03-03T00:07:42;97572.97;;;15.79;100.00
8697;BME280;4385;48.848;8.924;2023-03-03T00:10:08;97569.59;;;15.79;100.00
8697;BME280;4385;48.848;8.924;2023-03-03T00:12:34;97569.59;;;15.77;100.00
8697;BME280;4385;48.848;8.924;2023-03-03T00:14:59;97570.44;;;15.78;100.00
8697;BME280;4385;48.848;8.924;2023-03-03T00:17:28;97572.09;;;15.80;100.00
8697;BME280;4385;48.848;8.924;2023-03-03T00:19:54;97576.31;;;15.81;100.00
8697;BME280;4385;48.848;8.924;2023-03-03T00:22:30;97573.78;;;15.81;100.00
8697;BME280;4385;48.848;8.924;2023-03-03T00:25:28;97575.47;;;15.82;100.00
8697;BME280;4385;48.848;8.924;2023-03-03T00:27:53;97572.06;;;15.83;100.00
8697;BME280;4385;48.848;8.924;2023-03-03T00:30:23;97577.13;;;15.87;100.00
8697;BME280;4385;48.848;8.924;2023-03-03T00:32:53;97572.03;;;15.88;100.00
8697;BME280;4385;48.848;8.924;2023-03-03T00:35:27;97569.47;;;15.90;100.00
8697;BME280;4385;48.848;8.924;2023-03-03T00:37:58;97579.59;;;15.93;100.00
8697;BME280;4385;48.848;8.924;2023-03-03T00:40:36;97570.31;;;15.92;100.00
8697;BME280;4385;48.848;8.924;2023-03-03T00:43:14;97583.81;;;15.94;100.00
8697;BME280;4385;48.848;8.924;2023-03-03T00:45:49;97572.81;;;15.95;100.00
8697;BME280;4385;48.848;8.924;2023-03-03T00:51:01;97567.75;;;15.93;100.00
8697;BME280;4385;48.848;8.924;2023-03-03T00:53:32;97566.06;;;15.91;100.00
8697;BME280;4385;48.848;8.924;2023-03-03T00:55:57;97567.81;;;15.89;100.00
8697;BME280;4385;48.848;8.924;2023-03-03T00:58:24;97566.09;;;15.88;100.00
8697;BME280;4385;48.848;8.924;2023-03-03T01:00:53;97563.56;;;15.86;100.00
8697;BME280;4385;48.848;8.924;2023-03-03T01:03:23;97559.38;;;15.83;100.00
8697;BME280;4385;48.848;8.924;2023-03-03T01:05:49;97560.28;;;15.79;100.00
8697;BME280;4385;48.848;8.924;2023-03-03T01:08:15;97561.97;;;15.79;100.00
8697;BME280;4385;48.848;8.924;2023-03-03T01:10:47;97558.59;;;15.77;100.00
8697;BME280;4385;48.848;8.924;2023-03-03T01:13:15;97559.44;;;15.77;100.00
8697;BME280;4385;48.848;8.924;2023-03-03T01:15:41;97562.81;;;15.79;100.00
8697;BME280;4385;48.848;8.924;2023-03-03T01:18:07;97554.31;;;15.80;100.00
8697;BME280;4385;48.848;8.924;2023-03-03T01:20:33;97558.53;;;15.81;100.00
8697;BME280;4385;48.848;8.924;2023-03-03T01:22:58;97559.38;;;15.83;100.00
8697;BME280;4385;48.848;8.924;2023-03-03T01:25:24;97555.97;;;15.84;100.00
8697;BME280;4385;48.848;8.924;2023-03-03T01:27:49;97558.47;;;15.88;100.00
8697;BME280;4385;48.848;8.924;2023-03-03T01:30:15;97566.06;;;15.89;100.00
8697;BME280;4385;48.848;8.924;2023-03-03T01:32:40;97559.31;;;15.90;100.00
8697;BME280;4385;48.848;8.924;2023-03-03T01:35:06;97565.22;;;15.92;100.00
8697;BME280;4385;48.848;8.924;2023-03-03T01:37:33;97565.22;;;15.93;100.00
8697;BME280;4385;48.848;8.924;2023-03-03T01:40:00;97575.38;;;15.93;100.00
8697;BME280;4385;48.848;8.924;2023-03-03T01:42:25;97570.28;;;15.93;100.00
8697;BME280;4385;48.848;8.924;2023-03-03T01:45:29;97572.84;;;15.92;100.00
8697;BME280;4385;48.848;8.924;2023-03-03T01:48:09;97566.06;;;15.89;100.00
8697;BME280;4385;48.848;8.924;2023-03-03T01:50:48;97557.66;;;15.86;100.00
8697;BME280;4385;48.848;8.924;2023-03-03T01:53:18;97562.78;;;15.82;100.00
8697;BME280;4385;48.848;8.924;2023-03-03T01:55:44;97559.41;;;15.79;100.00
8697;BME280;4385;48.848;8.924;2023-03-03T01:58:21;97556.91;;;15.77;100.00
8697;BME280;4385;48.848;8.924;2023-03-03T02:00:55;97543.38;;;15.74;100.00
8697;BME280;4385;48.848;8.924;2023-03-03T02:03:22;97536.63;;;15.73;100.00
8697;BME280;4385;48.848;8.924;2023-03-03T02:05:50;97540.84;;;15.72;100.00
8697;BME280;4385;48.848;8.924;2023-03-03T02:08:20;97536.63;;;15.73;100.00
8697;BME280;4385;48.848;8.924;2023-03-03T02:10:47;97534.06;;;15.73;100.00
8697;BME280;4385;48.848;8.924;2023-03-03T02:13:13;97530.66;;;15.75;100.00
8697;BME280;4385;48.848;8.924;2023-03-03T02:15:38;97535.69;;;15.78;100.00
8697;BME280;4385;48.848;8.924;2023-03-03T02:18:07;97527.22;;;15.82;100.00
8697;BME280;4385;48.848;8.924;2023-03-03T02:23:06;97533.03;;;15.89;100.00
8697;BME280;4385;48.848;8.924;2023-03-03T02:25:50;97529.66;;;15.92;100.00
8697;BME280;4385;48.848;8.924;2023-03-03T02:28:17;97532.16;;;15.95;100.00
8697;BME280;4385;48.848;8.924;2023-03-03T02:30:42;97526.22;;;15.98;100.00
8697;BME280;4385;48.848;8.924;2023-03-03T02:33:08;97530.44;;;16.00;100.00
8697;BME280;4385;48.848;8.924;2023-03-03T02:35:37;97537.22;;;16.00;100.00
8697;BME280;4385;48.848;8.924;2023-03-03T02:46:08;97538.94;;;15.93;100.00
8697;BME280;4385;48.848;8.924;2023-03-03T02:48:33;97543.19;;;15.91;100.00
8697;BME280;4385;48.848;8.924;2023-03-03T02:50:58;97545.75;;;15.88;100.00
8697;BME280;4385;48.848;8.924;2023-03-03T02:53:24;97545.81;;;15.84;100.00
8697;BME280;4385;48.848;8.924;2023-03-03T02:55:49;97547.53;;;15.82;100.00
8697;BME280;4385;48.848;8.924;2023-03-03T02:58:14;97547.56;;;15.79;100.00
8697;BME280;4385;48.848;8.924;2023-03-03T03:00:40;97544.19;;;15.77;100.00
8697;BME280;4385;48.848;8.924;2023-03-03T03:03:05;97555.25;;;15.75;100.00
8697;BME280;4385;48.848;8.924;2023-03-03T03:05:30;97547.63;;;15.73;100.00
8697;BME280;4385;48.848;8.924;2023-03-03T03:07:56;97551.84;;;15.73;100.00
8697;BME280;4385;48.848;8.924;2023-03-03T03:10:21;97547.63;;;15.73;100.00
8697;BME280;4385;48.848;8.924;2023-03-03T03:12:46;97551.84;;;15.74;100.00
8697;BME280;4385;48.848;8.924;2023-03-03T03:15:11;97556.06;;;15.75;100.00
8697;BME280;4385;48.848;8.924;2023-03-03T03:17:38;97545.88;;;15.75;100.00
8697;BME280;4385;48.848;8.924;2023-03-03T03:20:03;97548.41;;;15.77;100.00
8697;BME280;4385;48.848;8.924;2023-03-03T03:22:29;97550.09;;;15.79;100.00
8697;BME280;4385;48.848;8.924;2023-03-03T03:24:54;97547.53;;;15.82;100.00
8697;BME280;4385;48.848;8.924;2023-03-03T03:27:19;97546.66;;;15.83;100.00
8697;BME280;4385;48.848;8.924;2023-03-03T03:29:45;97551.75;;;15.83;100.00
8697;BME280;4385;48.848;8.924;2023-03-03T03:32:10;97552.59;;;15.86;100.00
8697;BME280;4385;48.848;8.924;2023-03-03T03:34:36;97554.25;;;15.87;100.00
8697;BME280;4385;48.848;8.924;2023-03-03T03:37:02;97550.84;;;15.88;100.00
8697;BME280;4385;48.848;8.924;2023-03-03T03:39:27;97558.44;;;15.89;100.00
8697;BME280;4385;48.848;8.924;2023-03-03T03:41:53;97556.78;;;15.88;100.00
8697;BME280;4385;48.848;8.924;2023-03-03T03:44:18;97553.41;;;15.86;100.00
8697;BME280;4385;48.848;8.924;2023-03-03T03:46:43;97560.22;;;15.86;100.00
8697;BME280;4385;48.848;8.924;2023-03-03T03:49:08;97561.03;;;15.84;100.00
8697;BME280;4385;48.848;8.924;2023-03-03T03:51:34;97553.44;;;15.83;100.00
8697;BME280;4385;48.848;8.924;2023-03-03T03:54:02;97557.69;;;15.82;100.00
8697;BME280;4385;48.848;8.924;2023-03-03T03:56:27;97557.72;;;15.79;100.00
8697;BME280;4385;48.848;8.924;2023-03-03T03:58:53;97554.38;;;15.76;100.00
8697;BME280;4385;48.848;8.924;2023-03-03T04:01:18;97551.84;;;15.74;100.00
8697;BME280;4385;48.848;8.924;2023-03-03T04:03:43;97554.41;;;15.73;100.00
8697;BME280;4385;48.848;8.924;2023-03-03T04:06:08;97551.84;;;15.73;100.00
8697;BME280;4385;48.848;8.924;2023-03-03T04:08:34;97548.44;;;15.74;100.00
8697;BME280;4385;48.848;8.924;2023-03-03T04:10:59;97541.69;;;15.74;100.00
8697;BME280;4385;48.848;8.924;2023-03-03T04:13:24;97547.59;;;15.76;100.00
8697;BME280;4385;48.848;8.924;2023-03-03T04:15:53;97545.84;;;15.78;100.00
8697;BME280;4385;48.848;8.924;2023-03-03T04:18:18;97551.78;;;15.79;100.00
8697;BME280;4385;48.848;8.924;2023-03-03T04:20:43;97547.56;;;15.79;100.00
8697;BME280;4385;48.848;8.924;2023-03-03T04:23:08;97562.78;;;15.81;100.00
8697;BME280;4385;48.848;8.924;2023-03-03T04:25:34;97557.69;;;15.82;100.00
8697;BME280;4385;48.848;8.924;2023-03-03T04:27:59;97557.69;;;15.82;100.00
8697;BME280;4385;48.848;8.924;2023-03-03T04:30:24;97554.28;;;15.83;100.00
8697;BME280;4385;48.848;8.924;2023-03-03T04:32:50;97560.19;;;15.87;100.00
8697;BME280;4385;48.848;8.924;2023-03-03T04:35:17;97558.44;;;15.89;100.00
8697;BME280;4385;48.848;8.924;2023-03-03T04:37:42;97558.44;;;15.91;100.00
8697;BME280;4385;48.848;8.924;2023-03-03T04:40:08;97559.28;;;15.91;100.00
8697;BME280;4385;48.848;8.924;2023-03-03T04:42:34;97556.75;;;15.91;100.00
8697;BME280;4385;48.848;8.924;2023-03-03T04:45:00;97560.16;;;15.90;100.00
8697;BME280;4385;48.848;8.924;2023-03-03T04:47:25;97566.94;;;15.88;100.00
8697;BME280;4385;48.848;8.924;2023-03-03T04:49:50;97577.16;;;15.85;100.00
8697;BME280;4385;48.848;8.924;2023-03-03T04:52:16;97572.94;;;15.82;100.00
8697;BME280;4385;48.848;8.924;2023-03-03T04:54:41;97569.59;;;15.77;100.00
8697;BME280;4385;48.848;8.924;2023-03-03T04:57:07;97564.53;;;15.74;100.00
8697;BME280;4385;48.848;8.924;2023-03-03T04:59:33;97577.28;;;15.71;100.00
8697;BME280;4385;48.848;8.924;2023-03-03T05:01:59;97579.84;;;15.68;100.00
8697;BME280;4385;48.848;8.924;2023-03-03T05:04:24;97579.03;;;15.64;100.00
8697;BME280;4385;48.848;8.924;2023-03-03T05:06:49;97584.97;;;15.62;100.00
8697;BME280;4385;48.848;8.924;2023-03-03T05:09:15;97570.59;;;15.61;100.00
8697;BME280;4385;48.848;8.924;2023-03-03T05:11:40;97571.44;;;15.59;100.00
8697;BME280;4385;48.848;8.924;2023-03-03T05:14:05;97579.06;;;15.61;100.00
8697;BME280;4385;48.848;8.924;2023-03-03T05:16:32;97577.38;;;15.62;100.00
8697;BME280;4385;48.848;8.924;2023-03-03T05:18:57;97572.28;;;15.63;100.00
8697;BME280;4385;48.848;8.924;2023-03-03T05:21:23;97573.94;;;15.66;100.00
8697;BME280;4385;48.848;8.924;2023-03-03T05:23:48;97572.22;;;15.68;100.00
8697;BME280;4385;48.848;8.924;2023-03-03T05:26:13;97571.34;;;15.72;100.00
8697;BME280;4385;48.848;8.924;2023-03-03T05:28:39;97570.50;;;15.73;100.00
8697;BME280;4385;48.848;8.924;2023-03-03T05:31:04;97576.38;;;15.77;100.00
8697;BME280;4385;48.848;8.924;2023-03-03T05:33:29;97584.81;;;15.79;100.00
8697;BME280;4385;48.848;8.924;2023-03-03T05:35:55;97583.13;;;15.79;100.00
8697;BME280;4385;48.848;8.924;2023-03-03T05:38:22;97591.56;;;15.81;100.00
8697;BME280;4385;48.848;8.924;2023-03-03T05:40:47;97594.13;;;15.80;100.00
8697;BME280;4385;48.848;8.924;2023-03-03T05:43:12;97595.84;;;15.79;100.00
8697;BME280;4385;48.848;8.924;2023-03-03T05:45:38;97604.31;;;15.78;100.00
8697;BME280;4385;48.848;8.924;2023-03-03T05:48:03;97607.72;;;15.76;100.00
8697;BME280;4385;48.848;8.924;2023-03-03T05:50:29;97610.28;;;15.74;100.00
8697;BME280;4385;48.848;8.924;2023-03-03T05:52:54;97609.44;;;15.72;100.00
8697;BME280;4385;48.848;8.924;2023-03-03T05:55:19;97612.00;;;15.69;100.00
8697;BME280;4385;48.848;8.924;2023-03-03T05:57:45;97616.28;;;15.67;100.00
8697;BME280;4385;48.848;8.924;2023-03-03T06:00:11;97606.97;;;15.63;100.00
8697;BME280;4385;48.848;8.924;2023-03-03T06:02:38;97608.72;;;15.61;100.00
8697;BME280;4385;48.848;8.924;2023-03-03T06:05:03;97615.50;;;15.58;100.00
8697;BME280;4385;48.848;8.924;2023-03-03T06:07:28;97612.13;;;15.56;100.00
8697;BME280;4385;48.848;8.924;2023-03-03T06:09:54;97619.72;;;15.56;100.00
8697;BME280;4385;48.848;8.924;2023-03-03T06:12:19;97620.56;;;15.58;100.00
8697;BME280;4385;48.848;8.924;2023-03-03T06:14:44;97612.06;;;15.61;100.00
8697;BME280;4385;48.848;8.924;2023-03-03T06:17:09;97619.63;;;15.67;100.00
8697;BME280;4385;48.848;8.924;2023-03-03T06:19:35;97626.41;;;15.71;100.00
8697;BME280;4385;48.848;8.924;2023-03-03T06:22:01;97625.50;;;15.76;100.00
8697;BME280;4385;48.848;8.924;2023-03-03T06:24:26;97622.91;;;15.82;100.00
8697;BME280;4385;48.848;8.924;2023-03-03T06:26:56;97635.56;;;15.87;100.00
8697;BME280;4385;48.848;8.924;2023-03-03T06:29:21;97628.75;;;15.92;100.00
8697;BME280;4385;48.848;8.924;2023-03-03T06:31:46;97632.94;;;15.99;100.00
8697;BME280;4385;48.848;8.924;2023-03-03T06:34:12;97642.25;;;16.03;100.00
8697;BME280;4385;48.848;8.924;2023-03-03T06:36:37;97639.69;;;16.05;100.00
8697;BME280;4385;48.848;8.924;2023-03-03T06:39:02;97648.97;;;16.07;100.00
8697;BME280;4385;48.848;8.924;2023-03-03T06:41:28;97651.53;;;16.07;100.00
8697;BME280;4385;48.848;8.924;2023-03-03T06:43:53;97642.22;;;16.06;100.00
8697;BME280;4385;48.848;8.924;2023-03-03T06:46:19;97643.91;;;16.06;100.00
8697;BME280;4385;48.848;8.924;2023-03-03T06:48:44;97652.41;;;16.03;100.00
8697;BME280;4385;48.848;8.924;2023-03-03T06:51:33;97651.56;;;16.01;100.00
8697;BME280;4385;48.848;8.924;2023-03-03T06:54:02;97654.97;;;15.97;100.00
8697;BME280;4385;48.848;8.924;2023-03-03T06:56:34;97659.22;;;15.95;100.00
8697;BME280;4385;48.848;8.924;2023-03-03T06:59:00;97657.53;;;15.94;100.00
8697;BME280;4385;48.848;8.924;2023-03-03T07:01:30;97660.09;;;15.92;100.00
8697;BME280;4385;48.848;8.924;2023-03-03T07:03:58;97650.78;;;15.93;100.00
8697;BME280;4385;48.848;8.924;2023-03-03T07:06:25;97665.16;;;15.94;100.00
8697;BME280;4385;48.848;8.924;2023-03-03T07:08:53;97670.22;;;15.95;100.00
8697;BME280;4385;48.848;8.924;2023-03-03T07:11:21;97666.00;;;15.96;100.00
8697;BME280;4385;48.848;8.924;2023-03-03T07:13:53;97666.84;;;15.96;100.00
8697;BME280;4385;48.848;8.924;2023-03-03T07:16:24;97666.00;;;15.99;100.00
8697;BME280;4385;48.848;8.924;2023-03-03T07:18:56;97675.31;;;16.00;100.00
8697;BME280;4385;48.848;8.924;2023-03-03T07:21:43;97675.28;;;16.03;100.00
8697;BME280;4385;48.848;8.924;2023-03-03T07:24:29;97671.03;;;16.05;100.00
8697;BME280;4385;48.848;8.924;2023-03-03T07:27:00;97670.16;;;16.08;100.00
8697;BME280;4385;48.848;8.924;2023-03-03T07:29:32;97670.13;;;16.11;100.00
8697;BME280;4385;48.848;8.924;2023-03-03T07:32:00;97669.25;;;16.14;100.00
8697;BME280;4385;48.848;8.924;2023-03-03T07:34:45;97675.19;;;16.16;100.00
8697;BME280;4385;48.848;8.924;2023-03-03T07:39:59;97679.44;;;16.14;100.00
8697;BME280;4385;48.848;8.924;2023-03-03T07:42:27;97681.13;;;16.12;100.00
8697;BME280;4385;48.848;8.924;2023-03-03T07:44:57;97676.94;;;16.09;100.00
8697;BME280;4385;48.848;8.924;2023-03-03T07:49:52;97682.88;;;16.06;100.00
8697;BME280;4385;48.848;8.924;2023-03-03T07:52:38;97675.28;;;16.03;100.00
8697;BME280;4385;48.848;8.924;2023-03-03T07:55:29;97688.03;;;16.00;100.00
8697;BME280;4385;48.848;8.924;2023-03-03T07:57:55;97688.88;;;15.96;100.00
8697;BME280;4385;48.848;8.924;2023-03-03T08:02:57;97693.13;;;15.91;100.00
8697;BME280;4385;48.848;8.924;2023-03-03T08:10:51;97701.66;;;15.87;100.00
8697;BME280;4385;48.848;8.924;2023-03-03T08:18:38;97710.13;;;15.87;100.00
8697;BME280;4385;48.848;8.924;2023-03-03T08:21:08;97702.50;;;15.89;100.00
8697;BME280;4385;48.848;8.924;2023-03-03T08:23:35;97700.75;;;15.92;100.00
8697;BME280;4385;48.848;8.924;2023-03-03T08:26:00;97703.28;;;15.94;100.00
8697;BME280;4385;48.848;8.924;2023-03-03T08:28:25;97698.19;;;15.94;100.00
8697;BME280;4385;48.848;8.924;2023-03-03T08:30:51;97702.44;;;15.95;100.00
8697;BME280;4385;48.848;8.924;2023-03-03T08:33:17;97693.97;;;15.94;100.00
8697;BME280;4385;48.848;8.924;2023-03-03T08:35:43;97699.03;;;15.94;100.00
8697;BME280;4385;48.848;8.924;2023-03-03T08:38:09;97688.88;;;15.94;100.00
8697;BME280;4385;48.848;8.924;2023-03-03T08:40:35;97689.72;;;15.95;100.00
8697;BME280;4385;48.848;8.924;2023-03-03T08:43:01;97691.41;;;15.96;100.00
8697;BME280;4385;48.848;8.924;2023-03-03T08:45:27;97698.19;;;15.97;100.00
8697;BME280;4385;48.848;8.924;2023-03-03T08:47:52;97694.81;;;15.95;100.00
8697;BME280;4385;48.848;8.924;2023-03-03T08:50:18;97688.03;;;15.94;100.00
8697;BME280;4385;48.848;8.924;2023-03-03T08:52:44;97698.22;;;15.91;100.00
8697;BME280;4385;48.848;8.924;2023-03-03T08:55:10;97704.19;;;15.88;100.00
8697;BME280;4385;48.848;8.924;2023-03-03T08:57:36;97706.75;;;15.85;100.00
8697;BME280;4385;48.848;8.924;2023-03-03T09:00:01;97703.38;;;15.81;100.00
8697;BME280;4385;48.848;8.924;2023-03-03T09:02:26;97703.41;;;15.78;100.00
8697;BME280;4385;48.848;8.924;2023-03-03T09:04:52;97710.22;;;15.76;100.00
8697;BME280;4385;48.848;8.924;2023-03-03T09:07:17;97714.44;;;15.74;100.00
8697;BME280;4385;48.848;8.924;2023-03-03T09:09:43;97718.69;;;15.74;100.00
8697;BME280;4385;48.848;8.924;2023-03-03T09:12:30;97718.69;;;15.72;100.00
8697;BME280;4385;48.848;8.924;2023-03-03T09:14:59;97728.03;;;15.73;100.00
8697;BME280;4385;48.848;8.924;2023-03-03T09:17:34;97728.81;;;15.78;100.00
8697;BME280;4385;48.848;8.924;2023-03-03T09:20:16;97731.31;;;15.81;100.00
8697;BME280;4385;48.848;8.924;2023-03-03T09:22:45;97728.75;;;15.88;100.00
8697;BME280;4385;48.848;8.924;2023-03-03T09:25:21;97742.25;;;15.93;100.00
8697;BME280;4385;48.848;8.924;2023-03-03T09:27:47;97733.78;;;15.97;100.00
8697;BME280;4385;48.848;8.924;2023-03-03T09:32:50;97742.19;;;16.05;100.00
8697;BME280;4385;48.848;8.924;2023-03-03T09:35:33;97748.09;;;16.11;100.00
8697;BME280;4385;48.848;8.924;2023-03-03T09:38:01;97741.31;;;16.13;100.00
8697;BME280;4385;48.848;8.924;2023-03-03T09:40:44;97735.34;;;16.14;100.00
8697;BME280;4385;48.848;8.924;2023-03-03T09:49:30;97737.06;;;16.12;100.00
8697;BME280;4385;48.848;8.924;2023-03-03T09:54:56;97730.28;;;16.11;100.00
8697;BME280;4385;48.848;8.924;2023-03-03T10:03:15;97730.34;;;16.04;100.00
8697;BME280;4385;48.848;8.924;2023-03-03T10:06:08;97744.75;;;16.05;100.00
8697;BME280;4385;48.848;8.924;2023-03-03T10:11:54;97740.50;;;16.07;100.00
8697;BME280;4385;48.848;8.924;2023-03-03T10:17:05;97752.31;;;16.12;100.00
8697;BME280;4385;48.848;8.924;2023-03-03T10:19:56;97751.44;;;16.16;100.00
8697;BME280;4385;48.848;8.924;2023-03-03T10:28:12;97753.06;;;16.25;100.00
8697;BME280;4385;48.848;8.924;2023-03-03T10:33:38;97746.28;;;16.27;100.00
8697;BME280;4385;48.848;8.924;2023-03-03T10:38:43;97753.03;;;16.28;100.00
8697;BME280;4385;48.848;8.924;2023-03-03T10:49:34;97759.00;;;16.25;100.00
8697;BME280;4385;48.848;8.924;2023-03-03T10:52:24;97759.00;;;16.25;100.00
8697;BME280;4385;48.848;8.924;2023-03-03T10:55:18;97749.69;;;16.23;100.00
8697;BME280;4385;48.848;8.924;2023-03-03T10:58:19;97757.31;;;16.21;100.00
8697;BME280;4385;48.848;8.924;2023-03-03T11:06:28;97759.91;;;16.16;100.00
8697;BME280;4385;48.848;8.924;2023-03-03T11:12:06;97756.53;;;16.16;100.00
8697;BME280;4385;48.848;8.924;2023-03-03T11:24:01;97755.66;;;16.18;100.00
8697;BME280;4385;48.848;8.924;2023-03-03T11:26:41;97754.78;;;16.19;100.00
8697;BME280;4385;48.848;8.924;2023-03-03T11:29:31;97754.78;;;16.21;100.00
8697;BME280;4385;48.848;8.924;2023-03-03T11:39:48;97745.41;;;16.26;100.00
8697;BME280;4385;48.848;8.924;2023-03-03T11:42:46;97752.19;;;16.27;100.00
8697;BME280;4385;48.848;8.924;2023-03-03T11:45:19;97745.41;;;16.26;100.00
8697;BME280;4385;48.848;8.924;2023-03-03T11:47:57;97738.66;;;16.25;100.00
8697;BME280;4385;48.848;8.924;2023-03-03T11:50:30;97735.25;;;16.25;100.00
8697;BME280;4385;48.848;8.924;2023-03-03T11:53:21;97738.69;;;16.22;100.00
8697;BME280;4385;48.848;8.924;2023-03-03T11:55:54;97731.88;;;16.21;100.00
8697;BME280;4385;48.848;8.924;2023-03-03T11:58:27;97730.25;;;16.17;100.00
8697;BME280;4385;48.848;8.924;2023-03-03T12:01:19;97720.06;;;16.17;100.00
8697;BME280;4385;48.848;8.924;2023-03-03T12:03:56;97728.59;;;16.14;100.00
8697;BME280;4385;48.848;8.924;2023-03-03T12:12:05;97720.13;;;16.11;100.00
8697;BME280;4385;48.848;8.924;2023-03-03T12:15:03;97716.72;;;16.12;100.00
8697;BME280;4385;48.848;8.924;2023-03-03T12:20:33;97720.09;;;16.14;100.00
8697;BME280;4385;48.848;8.924;2023-03-03T12:23:34;97712.47;;;16.15;100.00
8697;BME280;4385;48.848;8.924;2023-03-03T12:28:49;97705.66;;;16.19;100.00
8697;BME280;4385;48.848;8.924;2023-03-03T12:34:36;97708.16;;;16.24;100.00
8697;BME280;4385;48.848;8.924;2023-03-03T12:40:18;97697.97;;;16.25;100.00
8697;BME280;4385;48.848;8.924;2023-03-03T12:56:26;97699.72;;;16.20;100.00
8697;BME280;4385;48.848;8.924;2023-03-03T12:59:10;97700.59;;;16.17;100.00
8697;BME280;4385;48.848;8.924;2023-03-03T13:04:35;97701.44;;;16.15;100.00
8697;BME280;4385;48.848;8.924;2023-03-03T13:07:40;97701.44;;;16.15;100.00
8697;BME280;4385;48.848;8.924;2023-03-03T13:13:26;97697.22;;;16.14;100.00
8697;BME280;4385;48.848;8.924;2023-03-03T13:16:01;97696.34;;;16.15;100.00
8697;BME280;4385;48.848;8.924;2023-03-03T13:18:47;97703.16;;;16.16;100.00
8697;BME280;4385;48.848;8.924;2023-03-03T13:24:25;97699.69;;;16.23;100.00
8697;BME280;4385;48.848;8.924;2023-03-03T13:27:16;97687.81;;;16.25;100.00
8697;BME280;4385;48.848;8.924;2023-03-03T13:32:23;97694.53;;;16.29;100.00
8697;BME280;4385;48.848;8.924;2023-03-03T13:35:18;97693.66;;;16.32;100.00
8697;BME280;4385;48.848;8.924;2023-03-03T13:37:52;97692.78;;;16.35;100.00
8697;BME280;4385;48.848;8.924;2023-03-03T13:40:22;97687.66;;;16.38;100.00
8697;BME280;4385;48.848;8.924;2023-03-03T13:51:05;97679.22;;;16.36;100.00
8697;BME280;4385;48.848;8.924;2023-03-03T13:56:23;97683.47;;;16.32;100.00
8697;BME280;4385;48.848;8.924;2023-03-03T13:59:10;97674.19;;;16.29;100.00
8697;BME280;4385;48.848;8.924;2023-03-03T14:02:01;97675.88;;;16.29;100.00
8697;BME280;4385;48.848;8.924;2023-03-03T14:04:44;97677.59;;;16.28;100.00
8697;BME280;4385;48.848;8.924;2023-03-03T14:10:23;97672.47;;;16.31;100.00
8697;BME280;4385;48.848;8.924;2023-03-03T14:13:08;97664.84;;;16.33;100.00
8697;BME280;4385;48.848;8.924;2023-03-03T14:15:53;97669.88;;;16.36;100.00
8697;BME280;4385;48.848;8.924;2023-03-03T14:18:33;97663.09;;;16.37;100.00
8697;BME280;4385;48.848;8.924;2023-03-03T14:21:08;97667.31;;;16.39;100.00
8697;BME280;4385;48.848;8.924;2023-03-03T14:26:14;97663.91;;;16.40;100.00
8697;BME280;4385;48.848;8.924;2023-03-03T14:28:45;97664.72;;;16.42;100.00
8697;BME280;4385;48.848;8.924;2023-03-03T14:31:15;97657.91;;;16.44;100.00
8697;BME280;4385;48.848;8.924;2023-03-03T14:33:45;97658.75;;;16.45;100.00
8697;BME280;4385;48.848;8.924;2023-03-03T14:36:26;97653.66;;;16.47;100.00
8697;BME280;4385;48.848;8.924;2023-03-03T14:38:51;97658.75;;;16.47;100.00
8697;BME280;4385;48.848;8.924;2023-03-03T14:41:19;97658.75;;;16.45;100.00
8697;BME280;4385;48.848;8.924;2023-03-03T14:43:55;97658.75;;;16.45;100.00
8697;BME280;4385;48.848;8.924;2023-03-03T14:47:02;97657.09;;;16.44;100.00
8697;BME280;4385;48.848;8.924;2023-03-03T14:49:31;97661.34;;;16.42;100.00
8697;BME280;4385;48.848;8.924;2023-03-03T14:52:17;97664.72;;;16.42;100.00
8697;BME280;4385;48.848;8.924;2023-03-03T14:54:47;97660.50;;;16.40;100.00
8697;BME280;4385;48.848;8.924;2023-03-03T15:07:38;97659.75;;;16.33;100.00
8697;BME280;4385;48.848;8.924;2023-03-03T15:10:05;97659.72;;;16.35;100.00
8697;BME280;4385;48.848;8.924;2023-03-03T15:20:28;97650.31;;;16.40;100.00
8697;BME280;4385;48.848;8.924;2023-03-03T15:26:09;97639.31;;;16.41;100.00
8697;BME280;4385;48.848;8.924;2023-03-03T15:29:22;97641.84;;;16.42;100.00
8697;BME280;4385;48.848;8.924;2023-03-03T15:34:31;97637.56;;;16.44;100.00
8697;BME280;4385;48.848;8.924;2023-03-03T15:40:39;97631.66;;;16.44;100.00
8697;BME280;4385;48.848;8.924;2023-03-03T15:43:19;97636.75;;;16.44;100.00
8697;BME280;4385;48.848;8.924;2023-03-03T15:45:55;97638.44;;;16.43;100.00
8697;BME280;4385;48.848;8.924;2023-03-03T15:56:37;97646.13;;;16.39;100.00
8697;BME280;4385;48.848;8.924;2023-03-03T16:04:31;97641.06;;;16.36;100.00
8697;BME280;4385;48.848;8.924;2023-03-03T16:07:57;97647.84;;;16.33;100.00
8697;BME280;4385;48.848;8.924;2023-03-03T16:10:02;97653.81;;;16.32;100.00
8697;BME280;4385;48.848;8.924;2023-03-03T16:12:46;97655.47;;;16.33;100.00
8697;BME280;4385;48.848;8.924;2023-03-03T16:23:46;97657.16;;;16.38;100.00
8697;BME280;4385;48.848;8.924;2023-03-03T16:34:38;97667.25;;;16.44;100.00
8697;BME280;4385;48.848;8.924;2023-03-03T16:37:30;97674.03;;;16.45;100.00
8697;BME280;4385;48.848;8.924;2023-03-03T16:42:33;97679.09;;;16.47;100.00
8697;BME280;4385;48.848;8.924;2023-03-03T16:45:02;97683.31;;;16.48;100.00
8697;BME280;4385;48.848;8.924;2023-03-03T17:01:07;97709.69;;;16.39;100.00
8697;BME280;4385;48.848;8.924;2023-03-03T17:03:51;97709.72;;;16.36;100.00
8697;BME280;4385;48.848;8.924;2023-03-03T17:09:01;97715.66;;;16.38;100.00
8697;BME280;4385;48.848;8.924;2023-03-03T17:11:56;97710.53;;;16.39;100.00
8697;BME280;4385;48.848;8.924;2023-03-03T17:14:58;97713.94;;;16.38;100.00
8697;BME280;4385;48.848;8.924;2023-03-03T17:17:42;97715.66;;;16.38;100.00
8697;BME280;4385;48.848;8.924;2023-03-03T17:20:31;97723.25;;;16.41;100.00
8697;BME280;4385;48.848;8.924;2023-03-03T17:26:15;97722.38;;;16.43;100.00
8697;BME280;4385;48.848;8.924;2023-03-03T17:28:51;97733.41;;;16.44;100.00
8697;BME280;4385;48.848;8.924;2023-03-03T17:31:48;97733.38;;;16.45;100.00